< < Back
Terminal Aerodrome Forecast


Current Version              Previous Versions:   1  2  3  4  5  6  7  8  9  

Terminal Aerodrome Forecast

219
FTUS42 KFFC 221122
TAFCSG
TAF
KCSG 221122Z 2212/2312 09008KT P6SM FEW050 SCT250
     FM221400 08008KT P6SM SCT045
     FM221800 08008KT P6SM BKN045
     FM222200 08007KT P6SM BKN035
     FM230300 08006KT P6SM OVC018
     FM230500 07008KT 4SM -RA BR OVC007=

Latest METAR

119
SAUS70 KWBC 230000 RRA
MTRCSG
METAR KCSG 222351Z AUTO 10010G16KT 10SM FEW033 OVC060 14/07 A3022 RMK
AO2 SLP234 T01440067 10189 20144 55001


USA.gov is the U.S. government's official web portal to all federal, state and local government web resources and services.